Tinsdal — V2AJ2 — position and weather

sailwx.info

Track history (hours):
 
Tides and Currents Weather Stations Pressure Air Temp Water Temp Dewpoint Dewpoint Depression Visibility Wind Speed Wind Dir Waves Ship Positions

Tinsdal

Last reported at 2017-Mar-27 11:18 UTC. Time now 2017-Mar-30 04:46 UTC.
Position N 49°44' W 006°03'.

Length 180 m; draft 4.1 m.

Type: Ship. MMSI: 305573000.

Date/timePositionNaut miles runAvg speedWind from/ knotsBaromVisibWave heightAir tempDewpointWater temp
2017-Mar-27 11:18N 49°44' W 006°03'9 8.0
2017-Mar-27 10:13N 49°52' W 006°03'5 7.4
2017-Mar-27 09:29N 49°58' W 006°03'6 6.1
2017-Mar-27 08:31N 50°04' W 006°02'6 6.8
2017-Mar-27 07:34N 50°10' W 006°02'7 6.9
2017-Mar-27 06:33N 50°17' W 006°01'6 6.0
2017-Mar-27 05:33N 50°23' W 006°02'7 5.0
2017-Mar-27 04:04N 50°30' W 006°00'2 4.7
2017-Mar-27 03:34N 50°33' W 006°00'17 5.5
2017-Mar-27 00:33N 50°49' W 006°00'92 7.0
2017-Mar-26 11:22N 52°20' W 005°38'64 8.2
2017-Mar-26 03:33N 53°20' W 004°59'20 9.8
2017-Mar-26 01:32N 53°34' W 004°35'1111.0
2017-Mar-26 00:33N 53°34' W 004°17'1110.7
2017-Mar-25 23:33N 53°34' W 003°59'10 9.8
2017-Mar-25 22:33N 53°34' W 003°42'9 9.0
2017-Mar-25 21:33N 53°33' W 003°27'9 8.5
2017-Mar-25 20:33N 53°31' W 003°13'8 8.5
2017-Mar-25 19:33N 53°27' W 003°01'2 2.1
2017-Mar-25 18:29N 53°24' W 003°01'0 0.4
2017-Mar-25 17:32N 53°24' W 003°02'0 0.4
2017-Mar-25 16:32N 53°24' W 003°03'0 0.0
2017-Mar-25 15:29N 53°24' W 003°03'0 0.0
2017-Mar-25 14:32N 53°24' W 003°03'0 0.0
2017-Mar-25 13:32N 53°24' W 003°03'0 0.0
2017-Mar-25 12:32N 53°24' W 003°03'0 0.0
2017-Mar-25 11:29N 53°24' W 003°03'0 0.0
2017-Mar-25 10:32N 53°24' W 003°03'0 0.0
2017-Mar-25 09:32N 53°24' W 003°03'0 0.0
2017-Mar-25 08:32N 53°24' W 003°03'0 0.0
2017-Mar-25 07:29N 53°24' W 003°03'0 0.0
2017-Mar-25 06:32N 53°24' W 003°03'0 0.0
2017-Mar-25 05:32N 53°24' W 003°03'0 0.0
2017-Mar-25 04:32N 53°24' W 003°03'0 0.0
2017-Mar-25 03:29N 53°24' W 003°03'0 0.0
2017-Mar-25 02:32N 53°24' W 003°03'0 0.0
2017-Mar-25 01:32N 53°24' W 003°03'0 0.0
2017-Mar-25 00:26N 53°24' W 003°03'0 0.0
2017-Mar-24 23:32N 53°24' W 003°03'0 0.0
2017-Mar-24 22:32N 53°24' W 003°03'0 0.0
2017-Mar-24 21:32N 53°24' W 003°03'0 0.0
2017-Mar-24 20:32N 53°24' W 003°03'0 0.0
2017-Mar-24 19:32N 53°24' W 003°03'0 0.0
2017-Mar-24 18:32N 53°24' W 003°03'0 0.0
2017-Mar-24 17:32N 53°24' W 003°03'0 0.0
2017-Mar-24 16:32N 53°24' W 003°03'0 0.0
2017-Mar-24 15:26N 53°24' W 003°03'0 0.0
2017-Mar-24 14:32N 53°24' W 003°03'0 0.0
2017-Mar-24 13:32N 53°24' W 003°03'0 0.0
2017-Mar-24 12:32N 53°24' W 003°03'0 0.0
2017-Mar-24 11:29N 53°24' W 003°03'0 0.0
2017-Mar-24 10:32N 53°24' W 003°03'0 0.0
2017-Mar-24 09:32N 53°24' W 003°03'0 0.0
2017-Mar-24 08:20N 53°24' W 003°03'0 0.0
2017-Mar-24 07:32N 53°24' W 003°03'0 0.0
2017-Mar-24 06:32N 53°24' W 003°03'0 0.0
2017-Mar-24 05:32N 53°24' W 003°03'0 0.0
2017-Mar-24 04:32N 53°24' W 003°03'0 0.0
2017-Mar-24 03:32N 53°24' W 003°03'0 0.0
2017-Mar-24 02:29N 53°24' W 003°03'0 0.0
2017-Mar-24 01:32N 53°24' W 003°03'0 0.0
2017-Mar-24 00:32N 53°24' W 003°03'0 0.0
2017-Mar-23 23:32N 53°24' W 003°03'0 0.0
2017-Mar-23 22:32N 53°24' W 003°03'0 0.0
2017-Mar-23 21:32N 53°24' W 003°03'0 0.0
2017-Mar-23 20:32N 53°24' W 003°03'0 0.0
2017-Mar-23 19:32N 53°24' W 003°03'0 0.0
2017-Mar-23 18:32N 53°24' W 003°03'0 0.0
2017-Mar-23 17:32N 53°24' W 003°03'0 0.0
2017-Mar-23 16:32N 53°24' W 003°03'0 0.0
2017-Mar-23 15:32N 53°24' W 003°03'0 0.0
2017-Mar-23 14:32N 53°24' W 003°03'0 0.0
2017-Mar-23 13:32N 53°24' W 003°03'0 0.0
2017-Mar-23 12:32N 53°24' W 003°03'0 0.0
2017-Mar-23 11:29N 53°24' W 003°03'0 0.0
2017-Mar-23 10:32N 53°24' W 003°03'0 0.0
2017-Mar-23 09:32N 53°24' W 003°03'0 0.0
2017-Mar-23 08:32N 53°24' W 003°03'0 0.1
2017-Mar-23 07:32N 53°24' W 003°03'0 0.0
2017-Mar-23 06:32N 53°24' W 003°03'0 0.0
2017-Mar-23 05:29N 53°24' W 003°03'0 0.0
2017-Mar-23 04:32N 53°24' W 003°03'0 0.0
2017-Mar-23 03:32N 53°24' W 003°03'0 0.0
2017-Mar-23 02:32N 53°24' W 003°03'0 0.0
2017-Mar-23 01:32N 53°24' W 003°03'0 0.0
2017-Mar-23 00:32N 53°24' W 003°03'0 0.0
2017-Mar-22 23:32N 53°24' W 003°03'0 0.0
2017-Mar-22 22:32N 53°24' W 003°03'0 0.0
2017-Mar-22 21:32N 53°24' W 003°03'0 0.1
2017-Mar-22 20:29N 53°24' W 003°03'1 1.0
2017-Mar-22 19:31N 53°24' W 003°01'0 0.0
2017-Mar-22 18:31N 53°24' W 003°01'3 2.9
2017-Mar-22 17:33N 53°27' W 003°02'9 9.4
2017-Mar-22 16:33N 53°31' W 003°16'5 5.1
2017-Mar-22 15:33N 53°29' W 003°24'1 1.0
2017-Mar-22 14:28N 53°28' W 003°24'0 0.1
2017-Mar-22 13:31N 53°28' W 003°24'0 0.1
2017-Mar-22 12:31N 53°28' W 003°24'0 0.0
2017-Mar-22 11:28N 53°28' W 003°24'0 0.0
2017-Mar-22 10:31N 53°28' W 003°24'0 0.0
2017-Mar-22 09:22N 53°28' W 003°24'0 0.0
2017-Mar-22 08:31N 53°28' W 003°24'0 0.0
2017-Mar-22 07:28N 53°28' W 003°24'0 0.0
2017-Mar-22 06:31N 53°28' W 003°24'0 0.0
2017-Mar-22 05:31N 53°28' W 003°24'0 0.0
2017-Mar-22 04:25N 53°28' W 003°24'0 0.1
2017-Mar-22 03:31N 53°28' W 003°24'3 2.6
2017-Mar-22 02:33N 53°30' W 003°28'8 7.9
2017-Mar-22 01:33N 53°31' W 003°41'  
2017-Mar-18 02:21N 40°04' W 009°49'8 9.8
2017-Mar-18 01:33N 39°56' W 009°49'28 9.5
2017-Mar-17 22:33N 39°27' W 009°49'9 9.2
2017-Mar-17 21:33N 39°18' W 009°50'9 9.1
2017-Mar-17 20:33N 39°09' W 009°50'9 8.9
2017-Mar-17 19:33N 39°00' W 009°50'9 9.0
2017-Mar-17 18:33N 38°51' W 009°51'9 9.5
2017-Mar-17 17:33N 38°42' W 009°50'9 8.7
2017-Mar-17 16:33N 38°35' W 009°43'10 9.7
2017-Mar-17 15:33N 38°30' W 009°32'9 9.2
2017-Mar-17 14:33N 38°26' W 009°22'9 9.4
2017-Mar-17 13:33N 38°22' W 009°11'1110.9
2017-Mar-17 12:32N 38°27' W 008°58'  
Track history (hours):
 
Tides and Currents Weather Stations Pressure Air Temp Water Temp Dewpoint Dewpoint Depression Visibility Wind Speed Wind Dir Waves Ship Positions

Tinsdal

Last reported at 2017-Mar-27 11:18 UTC. Time now 2017-Mar-30 04:46 UTC.
Position N 49°44' W 006°03'.

Length 180 m; draft 4.1 m.

Type: Ship. MMSI: 305573000.

Date/timePositionNaut miles runAvg speedWind from/ knotsBaromVisibWave heightAir tempDewpointWater temp
2017-Mar-27 11:18N 49°44' W 006°03'9 8.0
2017-Mar-27 10:13N 49°52' W 006°03'5 7.4
2017-Mar-27 09:29N 49°58' W 006°03'6 6.1
2017-Mar-27 08:31N 50°04' W 006°02'6 6.8
2017-Mar-27 07:34N 50°10' W 006°02'7 6.9
2017-Mar-27 06:33N 50°17' W 006°01'6 6.0
2017-Mar-27 05:33N 50°23' W 006°02'7 5.0
2017-Mar-27 04:04N 50°30' W 006°00'2 4.7
2017-Mar-27 03:34N 50°33' W 006°00'17 5.5
2017-Mar-27 00:33N 50°49' W 006°00'92 7.0
2017-Mar-26 11:22N 52°20' W 005°38'64 8.2
2017-Mar-26 03:33N 53°20' W 004°59'20 9.8
2017-Mar-26 01:32N 53°34' W 004°35'1111.0
2017-Mar-26 00:33N 53°34' W 004°17'1110.7
2017-Mar-25 23:33N 53°34' W 003°59'10 9.8
2017-Mar-25 22:33N 53°34' W 003°42'9 9.0
2017-Mar-25 21:33N 53°33' W 003°27'9 8.5
2017-Mar-25 20:33N 53°31' W 003°13'8 8.5
2017-Mar-25 19:33N 53°27' W 003°01'2 2.1
2017-Mar-25 18:29N 53°24' W 003°01'0 0.4
2017-Mar-25 17:32N 53°24' W 003°02'0 0.4
2017-Mar-25 16:32N 53°24' W 003°03'0 0.0
2017-Mar-25 15:29N 53°24' W 003°03'0 0.0
2017-Mar-25 14:32N 53°24' W 003°03'0 0.0
2017-Mar-25 13:32N 53°24' W 003°03'0 0.0
2017-Mar-25 12:32N 53°24' W 003°03'0 0.0
2017-Mar-25 11:29N 53°24' W 003°03'0 0.0
2017-Mar-25 10:32N 53°24' W 003°03'0 0.0
2017-Mar-25 09:32N 53°24' W 003°03'0 0.0
2017-Mar-25 08:32N 53°24' W 003°03'0 0.0
2017-Mar-25 07:29N 53°24' W 003°03'0 0.0
2017-Mar-25 06:32N 53°24' W 003°03'0 0.0
2017-Mar-25 05:32N 53°24' W 003°03'0 0.0
2017-Mar-25 04:32N 53°24' W 003°03'0 0.0
2017-Mar-25 03:29N 53°24' W 003°03'0 0.0
2017-Mar-25 02:32N 53°24' W 003°03'0 0.0
2017-Mar-25 01:32N 53°24' W 003°03'0 0.0
2017-Mar-25 00:26N 53°24' W 003°03'0 0.0
2017-Mar-24 23:32N 53°24' W 003°03'0 0.0
2017-Mar-24 22:32N 53°24' W 003°03'0 0.0
2017-Mar-24 21:32N 53°24' W 003°03'0 0.0
2017-Mar-24 20:32N 53°24' W 003°03'0 0.0
2017-Mar-24 19:32N 53°24' W 003°03'0 0.0
2017-Mar-24 18:32N 53°24' W 003°03'0 0.0
2017-Mar-24 17:32N 53°24' W 003°03'0 0.0
2017-Mar-24 16:32N 53°24' W 003°03'0 0.0
2017-Mar-24 15:26N 53°24' W 003°03'0 0.0
2017-Mar-24 14:32N 53°24' W 003°03'0 0.0
2017-Mar-24 13:32N 53°24' W 003°03'0 0.0
2017-Mar-24 12:32N 53°24' W 003°03'0 0.0
2017-Mar-24 11:29N 53°24' W 003°03'0 0.0
2017-Mar-24 10:32N 53°24' W 003°03'0 0.0
2017-Mar-24 09:32N 53°24' W 003°03'0 0.0
2017-Mar-24 08:20N 53°24' W 003°03'0 0.0
2017-Mar-24 07:32N 53°24' W 003°03'0 0.0
2017-Mar-24 06:32N 53°24' W 003°03'0 0.0
2017-Mar-24 05:32N 53°24' W 003°03'0 0.0
2017-Mar-24 04:32N 53°24' W 003°03'0 0.0
2017-Mar-24 03:32N 53°24' W 003°03'0 0.0
2017-Mar-24 02:29N 53°24' W 003°03'0 0.0
2017-Mar-24 01:32N 53°24' W 003°03'0 0.0
2017-Mar-24 00:32N 53°24' W 003°03'0 0.0
2017-Mar-23 23:32N 53°24' W 003°03'0 0.0
2017-Mar-23 22:32N 53°24' W 003°03'0 0.0
2017-Mar-23 21:32N 53°24' W 003°03'0 0.0
2017-Mar-23 20:32N 53°24' W 003°03'0 0.0
2017-Mar-23 19:32N 53°24' W 003°03'0 0.0
2017-Mar-23 18:32N 53°24' W 003°03'0 0.0
2017-Mar-23 17:32N 53°24' W 003°03'0 0.0
2017-Mar-23 16:32N 53°24' W 003°03'0 0.0
2017-Mar-23 15:32N 53°24' W 003°03'0 0.0
2017-Mar-23 14:32N 53°24' W 003°03'0 0.0
2017-Mar-23 13:32N 53°24' W 003°03'0 0.0
2017-Mar-23 12:32N 53°24' W 003°03'0 0.0
2017-Mar-23 11:29N 53°24' W 003°03'0 0.0
2017-Mar-23 10:32N 53°24' W 003°03'0 0.0
2017-Mar-23 09:32N 53°24' W 003°03'0 0.0
2017-Mar-23 08:32N 53°24' W 003°03'0 0.1
2017-Mar-23 07:32N 53°24' W 003°03'0 0.0
2017-Mar-23 06:32N 53°24' W 003°03'0 0.0
2017-Mar-23 05:29N 53°24' W 003°03'0 0.0
2017-Mar-23 04:32N 53°24' W 003°03'0 0.0
2017-Mar-23 03:32N 53°24' W 003°03'0 0.0
2017-Mar-23 02:32N 53°24' W 003°03'0 0.0
2017-Mar-23 01:32N 53°24' W 003°03'0 0.0
2017-Mar-23 00:32N 53°24' W 003°03'0 0.0
2017-Mar-22 23:32N 53°24' W 003°03'0 0.0
2017-Mar-22 22:32N 53°24' W 003°03'0 0.0
2017-Mar-22 21:32N 53°24' W 003°03'0 0.1
2017-Mar-22 20:29N 53°24' W 003°03'1 1.0
2017-Mar-22 19:31N 53°24' W 003°01'0 0.0
2017-Mar-22 18:31N 53°24' W 003°01'3 2.9
2017-Mar-22 17:33N 53°27' W 003°02'9 9.4
2017-Mar-22 16:33N 53°31' W 003°16'5 5.1
2017-Mar-22 15:33N 53°29' W 003°24'1 1.0
2017-Mar-22 14:28N 53°28' W 003°24'0 0.1
2017-Mar-22 13:31N 53°28' W 003°24'0 0.1
2017-Mar-22 12:31N 53°28' W 003°24'0 0.0
2017-Mar-22 11:28N 53°28' W 003°24'0 0.0
2017-Mar-22 10:31N 53°28' W 003°24'0 0.0
2017-Mar-22 09:22N 53°28' W 003°24'0 0.0
2017-Mar-22 08:31N 53°28' W 003°24'0 0.0
2017-Mar-22 07:28N 53°28' W 003°24'0 0.0
2017-Mar-22 06:31N 53°28' W 003°24'0 0.0
2017-Mar-22 05:31N 53°28' W 003°24'0 0.0
2017-Mar-22 04:25N 53°28' W 003°24'0 0.1
2017-Mar-22 03:31N 53°28' W 003°24'3 2.6
2017-Mar-22 02:33N 53°30' W 003°28'8 7.9
2017-Mar-22 01:33N 53°31' W 003°41'  
2017-Mar-18 02:21N 40°04' W 009°49'8 9.8
2017-Mar-18 01:33N 39°56' W 009°49'28 9.5
2017-Mar-17 22:33N 39°27' W 009°49'9 9.2
2017-Mar-17 21:33N 39°18' W 009°50'9 9.1
2017-Mar-17 20:33N 39°09' W 009°50'9 8.9
2017-Mar-17 19:33N 39°00' W 009°50'9 9.0
2017-Mar-17 18:33N 38°51' W 009°51'9 9.5
2017-Mar-17 17:33N 38°42' W 009°50'9 8.7
2017-Mar-17 16:33N 38°35' W 009°43'10 9.7
2017-Mar-17 15:33N 38°30' W 009°32'9 9.2
2017-Mar-17 14:33N 38°26' W 009°22'9 9.4
2017-Mar-17 13:33N 38°22' W 009°11'1110.9
2017-Mar-17 12:32N 38°27' W 008°58'  

Dump ship's entire track history